sensor_id;sensor_type;location;lat;lon;timestamp;pressure;altitude;pressure_sealevel;temperature;humidity
64841;BME280;51307;52.162;7.560;2022-12-07T00:01:14;101033.09;;;4.57;100.00
64841;BME280;51307;52.162;7.560;2022-12-07T00:03:42;101036.34;;;4.47;100.00
64841;BME280;51307;52.162;7.560;2022-12-07T00:06:10;101032.06;;;4.46;100.00
64841;BME280;51307;52.162;7.560;2022-12-07T00:08:36;101028.56;;;4.47;100.00
64841;BME280;51307;52.162;7.560;2022-12-07T00:11:10;101029.78;;;4.42;100.00
64841;BME280;51307;52.162;7.560;2022-12-07T00:13:37;101036.44;;;4.46;100.00
64841;BME280;51307;52.162;7.560;2022-12-07T00:16:14;101035.56;;;4.58;100.00
64841;BME280;51307;52.162;7.560;2022-12-07T00:18:41;101028.97;;;4.54;100.00
64841;BME280;51307;52.162;7.560;2022-12-07T00:21:11;101019.88;;;4.48;100.00
64841;BME280;51307;52.162;7.560;2022-12-07T00:23:38;101018.91;;;4.49;100.00
64841;BME280;51307;52.162;7.560;2022-12-07T00:28:30;101021.00;;;4.44;100.00
64841;BME280;51307;52.162;7.560;2022-12-07T00:31:10;101014.16;;;4.43;100.00
64841;BME280;51307;52.162;7.560;2022-12-07T00:33:37;101015.00;;;4.44;100.00
64841;BME280;51307;52.162;7.560;2022-12-07T00:36:08;101018.00;;;4.50;100.00
64841;BME280;51307;52.162;7.560;2022-12-07T00:38:36;101021.44;;;4.25;100.00
64841;BME280;51307;52.162;7.560;2022-12-07T00:41:04;101014.50;;;4.39;100.00
64841;BME280;51307;52.162;7.560;2022-12-07T00:43:30;101020.88;;;4.59;100.00
64841;BME280;51307;52.162;7.560;2022-12-07T00:45:56;101020.81;;;4.22;100.00
64841;BME280;51307;52.162;7.560;2022-12-07T00:48:23;101013.72;;;4.13;100.00
64841;BME280;51307;52.162;7.560;2022-12-07T00:50:49;101018.31;;;4.33;100.00
64841;BME280;51307;52.162;7.560;2022-12-07T00:53:15;101012.50;;;4.42;100.00
64841;BME280;51307;52.162;7.560;2022-12-07T00:55:41;101012.44;;;4.31;100.00
64841;BME280;51307;52.162;7.560;2022-12-07T00:58:07;101007.31;;;4.42;100.00
64841;BME280;51307;52.162;7.560;2022-12-07T01:00:35;101010.91;;;4.16;100.00
64841;BME280;51307;52.162;7.560;2022-12-07T01:03:01;101008.88;;;4.08;100.00
64841;BME280;51307;52.162;7.560;2022-12-07T01:05:26;101014.50;;;4.26;100.00
64841;BME280;51307;52.162;7.560;2022-12-07T01:07:52;101009.38;;;4.00;100.00
64841;BME280;51307;52.162;7.560;2022-12-07T01:10:17;101009.88;;;4.05;100.00
64841;BME280;51307;52.162;7.560;2022-12-07T01:12:43;101009.75;;;4.20;100.00
64841;BME280;51307;52.162;7.560;2022-12-07T01:15:09;101015.66;;;3.96;100.00
64841;BME280;51307;52.162;7.560;2022-12-07T01:17:34;101022.38;;;4.12;100.00
64841;BME280;51307;52.162;7.560;2022-12-07T01:20:00;101019.59;;;4.15;100.00
64841;BME280;51307;52.162;7.560;2022-12-07T01:22:26;101013.63;;;3.88;100.00
64841;BME280;51307;52.162;7.560;2022-12-07T01:24:51;101010.59;;;4.07;100.00
64841;BME280;51307;52.162;7.560;2022-12-07T01:27:17;101004.94;;;3.89;100.00
64841;BME280;51307;52.162;7.560;2022-12-07T01:29:43;101008.34;;;3.90;100.00
64841;BME280;51307;52.162;7.560;2022-12-07T01:32:08;101008.88;;;3.95;100.00
64841;BME280;51307;52.162;7.560;2022-12-07T01:34:34;101011.63;;;3.92;100.00
64841;BME280;51307;52.162;7.560;2022-12-07T01:36:59;101008.56;;;3.87;100.00
64841;BME280;51307;52.162;7.560;2022-12-07T01:39:25;101017.16;;;3.75;100.00
64841;BME280;51307;52.162;7.560;2022-12-07T01:41:50;101019.28;;;3.68;100.00
64841;BME280;51307;52.162;7.560;2022-12-07T01:46:45;101019.72;;;3.75;100.00
64841;BME280;51307;52.162;7.560;2022-12-07T01:49:46;101018.22;;;3.32;100.00
64841;BME280;51307;52.162;7.560;2022-12-07T01:52:14;101017.31;;;3.46;100.00
64841;BME280;51307;52.162;7.560;2022-12-07T01:54:43;101029.31;;;3.60;100.00
64841;BME280;51307;52.162;7.560;2022-12-07T01:57:11;101021.25;;;3.52;100.00
64841;BME280;51307;52.162;7.560;2022-12-07T01:59:38;101024.34;;;3.57;100.00
64841;BME280;51307;52.162;7.560;2022-12-07T02:02:10;101020.13;;;3.56;100.00
64841;BME280;51307;52.162;7.560;2022-12-07T02:04:39;101023.31;;;3.46;100.00
64841;BME280;51307;52.162;7.560;2022-12-07T02:07:05;101024.94;;;3.22;100.00
64841;BME280;51307;52.162;7.560;2022-12-07T02:09:30;101026.25;;;3.28;100.00
64841;BME280;51307;52.162;7.560;2022-12-07T02:11:57;101022.47;;;3.46;100.00
64841;BME280;51307;52.162;7.560;2022-12-07T02:14:22;101019.78;;;3.47;100.00
64841;BME280;51307;52.162;7.560;2022-12-07T02:19:39;101023.06;;;3.37;100.00
64841;BME280;51307;52.162;7.560;2022-12-07T02:22:29;101017.72;;;3.40;100.00
64841;BME280;51307;52.162;7.560;2022-12-07T02:25:08;101007.47;;;3.25;100.00
64841;BME280;51307;52.162;7.560;2022-12-07T02:27:47;101012.13;;;3.33;100.00
64841;BME280;51307;52.162;7.560;2022-12-07T02:30:20;101012.13;;;3.33;100.00
64841;BME280;51307;52.162;7.560;2022-12-07T02:35:46;101005.41;;;3.18;100.00
64841;BME280;51307;52.162;7.560;2022-12-07T02:40:46;101006.38;;;2.75;100.00
64841;BME280;51307;52.162;7.560;2022-12-07T02:43:29;101016.44;;;2.93;100.00
64841;BME280;51307;52.162;7.560;2022-12-07T02:46:03;101012.16;;;3.06;100.00
64841;BME280;51307;52.162;7.560;2022-12-07T02:48:31;101002.25;;;3.00;100.00
64841;BME280;51307;52.162;7.560;2022-12-07T02:50:58;101005.59;;;2.88;100.00
64841;BME280;51307;52.162;7.560;2022-12-07T02:53:38;101008.78;;;2.78;100.00
64841;BME280;51307;52.162;7.560;2022-12-07T03:01:28;100998.16;;;2.83;100.00
64841;BME280;51307;52.162;7.560;2022-12-07T03:04:24;100990.59;;;3.07;100.00
64841;BME280;51307;52.162;7.560;2022-12-07T03:18:40;101003.97;;;2.87;100.00
64841;BME280;51307;52.162;7.560;2022-12-07T03:21:14;100999.47;;;3.03;100.00
64841;BME280;51307;52.162;7.560;2022-12-07T03:23:47;100993.91;;;2.82;100.00
64841;BME280;51307;52.162;7.560;2022-12-07T03:26:18;100994.13;;;2.79;100.00
64841;BME280;51307;52.162;7.560;2022-12-07T03:28:51;100991.88;;;2.87;100.00
64841;BME280;51307;52.162;7.560;2022-12-07T03:31:25;100984.41;;;2.55;100.00
64841;BME280;51307;52.162;7.560;2022-12-07T03:34:24;100992.72;;;2.88;100.00
64841;BME280;51307;52.162;7.560;2022-12-07T03:37:24;100988.03;;;2.53;100.00
64841;BME280;51307;52.162;7.560;2022-12-07T03:40:03;100997.91;;;2.73;100.00
64841;BME280;51307;52.162;7.560;2022-12-07T03:42:32;100989.91;;;2.78;100.00
64841;BME280;51307;52.162;7.560;2022-12-07T03:45:00;100986.03;;;2.71;100.00
64841;BME280;51307;52.162;7.560;2022-12-07T03:47:32;100981.53;;;2.74;100.00
64841;BME280;51307;52.162;7.560;2022-12-07T03:50:11;100977.56;;;2.41;100.00
64841;BME280;51307;52.162;7.560;2022-12-07T03:52:53;100980.22;;;2.40;100.00
64841;BME280;51307;52.162;7.560;2022-12-07T03:55:28;100982.13;;;2.51;100.00
64841;BME280;51307;52.162;7.560;2022-12-07T03:58:01;100983.50;;;2.56;100.00
64841;BME280;51307;52.162;7.560;2022-12-07T04:00:28;100985.09;;;2.44;100.00
64841;BME280;51307;52.162;7.560;2022-12-07T04:02:55;100985.72;;;2.62;100.00
64841;BME280;51307;52.162;7.560;2022-12-07T04:05:22;100987.16;;;2.67;100.00
64841;BME280;51307;52.162;7.560;2022-12-07T04:07:48;100981.03;;;2.55;100.00
64841;BME280;51307;52.162;7.560;2022-12-07T04:10:14;100978.28;;;2.58;100.00
64841;BME280;51307;52.162;7.560;2022-12-07T04:12:39;100970.34;;;2.61;100.00
64841;BME280;51307;52.162;7.560;2022-12-07T04:15:06;100975.13;;;2.53;100.00
64841;BME280;51307;52.162;7.560;2022-12-07T04:17:32;100974.03;;;2.57;100.00
64841;BME280;51307;52.162;7.560;2022-12-07T04:19:57;100978.53;;;2.53;100.00
64841;BME280;51307;52.162;7.560;2022-12-07T04:22:23;100982.34;;;2.75;100.00
64841;BME280;51307;52.162;7.560;2022-12-07T04:24:48;100983.06;;;2.77;100.00
64841;BME280;51307;52.162;7.560;2022-12-07T04:27:14;100980.84;;;2.58;100.00
64841;BME280;51307;52.162;7.560;2022-12-07T04:29:39;100987.25;;;2.92;100.00
64841;BME280;51307;52.162;7.560;2022-12-07T04:32:05;100987.75;;;2.84;100.00
64841;BME280;51307;52.162;7.560;2022-12-07T04:34:30;100988.63;;;2.71;100.00
64841;BME280;51307;52.162;7.560;2022-12-07T04:36:56;100988.09;;;2.66;100.00
64841;BME280;51307;52.162;7.560;2022-12-07T04:39:28;100991.22;;;2.98;100.00
64841;BME280;51307;52.162;7.560;2022-12-07T04:41:54;100984.50;;;3.08;100.00
64841;BME280;51307;52.162;7.560;2022-12-07T04:44:21;100986.34;;;3.06;100.00
64841;BME280;51307;52.162;7.560;2022-12-07T04:46:47;100977.09;;;3.16;100.00
64841;BME280;51307;52.162;7.560;2022-12-07T04:49:14;100972.41;;;2.69;100.00
64841;BME280;51307;52.162;7.560;2022-12-07T04:51:41;100980.88;;;2.71;100.00
64841;BME280;51307;52.162;7.560;2022-12-07T04:54:07;100985.94;;;2.72;100.00
64841;BME280;51307;52.162;7.560;2022-12-07T04:56:33;100979.81;;;2.88;100.00
64841;BME280;51307;52.162;7.560;2022-12-07T04:59:00;100984.41;;;2.70;100.00
64841;BME280;51307;52.162;7.560;2022-12-07T05:01:26;100988.75;;;2.82;100.00
64841;BME280;51307;52.162;7.560;2022-12-07T05:03:52;100986.59;;;2.76;100.00
64841;BME280;51307;52.162;7.560;2022-12-07T05:06:17;100984.41;;;2.55;100.00
64841;BME280;51307;52.162;7.560;2022-12-07T05:08:44;100976.56;;;2.71;100.00
64841;BME280;51307;52.162;7.560;2022-12-07T05:11:10;100989.69;;;2.81;100.00
64841;BME280;51307;52.162;7.560;2022-12-07T05:13:59;100987.13;;;2.81;100.00
64841;BME280;51307;52.162;7.560;2022-12-07T05:16:24;100987.72;;;2.57;100.00
64841;BME280;51307;52.162;7.560;2022-12-07T05:18:50;100988.31;;;2.75;100.00
64841;BME280;51307;52.162;7.560;2022-12-07T05:21:16;100983.50;;;2.56;100.00
64841;BME280;51307;52.162;7.560;2022-12-07T05:23:41;100981.72;;;2.71;100.00
64841;BME280;51307;52.162;7.560;2022-12-07T05:26:06;100983.59;;;2.82;100.00
64841;BME280;51307;52.162;7.560;2022-12-07T05:28:32;100983.91;;;2.77;100.00
64841;BME280;51307;52.162;7.560;2022-12-07T05:30:57;100976.13;;;2.64;100.00
64841;BME280;51307;52.162;7.560;2022-12-07T05:33:23;100980.16;;;2.69;100.00
64841;BME280;51307;52.162;7.560;2022-12-07T05:35:48;100974.75;;;2.59;100.00
64841;BME280;51307;52.162;7.560;2022-12-07T05:38:14;100976.50;;;2.58;100.00
64841;BME280;51307;52.162;7.560;2022-12-07T05:40:39;100974.97;;;2.56;100.00
64841;BME280;51307;52.162;7.560;2022-12-07T05:43:05;100969.53;;;2.46;100.00
64841;BME280;51307;52.162;7.560;2022-12-07T05:45:30;100976.75;;;2.68;100.00
64841;BME280;51307;52.162;7.560;2022-12-07T05:47:56;100964.84;;;2.80;100.00
64841;BME280;51307;52.162;7.560;2022-12-07T05:50:21;100969.88;;;2.81;100.00
64841;BME280;51307;52.162;7.560;2022-12-07T05:52:47;100978.44;;;2.82;100.00
64841;BME280;51307;52.162;7.560;2022-12-07T05:55:12;100971.50;;;2.70;100.00
64841;BME280;51307;52.162;7.560;2022-12-07T05:57:38;100970.53;;;2.85;100.00
64841;BME280;51307;52.162;7.560;2022-12-07T06:00:04;100969.41;;;2.89;100.00
64841;BME280;51307;52.162;7.560;2022-12-07T06:02:30;100971.91;;;3.03;100.00
64841;BME280;51307;52.162;7.560;2022-12-07T06:04:55;100974.50;;;3.03;100.00
64841;BME280;51307;52.162;7.560;2022-12-07T06:07:21;100972.47;;;2.81;100.00
64841;BME280;51307;52.162;7.560;2022-12-07T06:09:46;100970.44;;;2.99;100.00
64841;BME280;51307;52.162;7.560;2022-12-07T06:12:13;100970.06;;;3.05;100.00
64841;BME280;51307;52.162;7.560;2022-12-07T06:14:57;100970.31;;;2.88;100.00
64841;BME280;51307;52.162;7.560;2022-12-07T06:17:22;100969.84;;;2.69;100.00
64841;BME280;51307;52.162;7.560;2022-12-07T06:19:48;100963.50;;;2.60;100.00
64841;BME280;51307;52.162;7.560;2022-12-07T06:22:14;100971.28;;;2.73;100.00
64841;BME280;51307;52.162;7.560;2022-12-07T06:24:42;100971.41;;;2.71;100.00
64841;BME280;51307;52.162;7.560;2022-12-07T06:27:07;100969.69;;;2.57;100.00
64841;BME280;51307;52.162;7.560;2022-12-07T06:29:33;100982.28;;;2.62;100.00
64841;BME280;51307;52.162;7.560;2022-12-07T06:31:58;100976.44;;;2.73;100.00
64841;BME280;51307;52.162;7.560;2022-12-07T06:34:25;100980.34;;;2.93;100.00
64841;BME280;51307;52.162;7.560;2022-12-07T06:36:51;100988.38;;;2.88;100.00
64841;BME280;51307;52.162;7.560;2022-12-07T06:39:22;100986.13;;;2.96;100.00
64841;BME280;51307;52.162;7.560;2022-12-07T06:41:48;100989.13;;;2.63;100.00
64841;BME280;51307;52.162;7.560;2022-12-07T06:44:13;100984.63;;;2.38;100.00
64841;BME280;51307;52.162;7.560;2022-12-07T06:46:39;100983.31;;;2.59;100.00
64841;BME280;51307;52.162;7.560;2022-12-07T06:49:05;100984.38;;;2.42;100.00
64841;BME280;51307;52.162;7.560;2022-12-07T06:51:31;100984.84;;;2.35;100.00
64841;BME280;51307;52.162;7.560;2022-12-07T06:53:57;100985.88;;;2.32;100.00
64841;BME280;51307;52.162;7.560;2022-12-07T06:56:23;100988.69;;;2.42;100.00
64841;BME280;51307;52.162;7.560;2022-12-07T06:58:49;100992.13;;;2.42;100.00
64841;BME280;51307;52.162;7.560;2022-12-07T07:01:17;100981.38;;;2.36;100.00
64841;BME280;51307;52.162;7.560;2022-12-07T07:03:44;100986.97;;;2.42;100.00
64841;BME280;51307;52.162;7.560;2022-12-07T07:06:11;100988.50;;;2.45;100.00
64841;BME280;51307;52.162;7.560;2022-12-07T07:08:37;100986.13;;;2.42;100.00
64841;BME280;51307;52.162;7.560;2022-12-07T07:11:04;100985.69;;;2.21;100.00
64841;BME280;51307;52.162;7.560;2022-12-07T07:13:29;100987.88;;;2.41;100.00
64841;BME280;51307;52.162;7.560;2022-12-07T07:15:55;100987.13;;;2.54;100.00
64841;BME280;51307;52.162;7.560;2022-12-07T07:18:21;100992.38;;;2.52;100.00
64841;BME280;51307;52.162;7.560;2022-12-07T07:20:47;100997.16;;;2.44;100.00
64841;BME280;51307;52.162;7.560;2022-12-07T07:23:12;100994.03;;;2.39;100.00
64841;BME280;51307;52.162;7.560;2022-12-07T07:25:38;101005.84;;;2.70;100.00
64841;BME280;51307;52.162;7.560;2022-12-07T07:28:04;101005.19;;;2.67;100.00
64841;BME280;51307;52.162;7.560;2022-12-07T07:30:30;101004.09;;;2.71;100.00
64841;BME280;51307;52.162;7.560;2022-12-07T07:32:57;101001.72;;;2.68;100.00
64841;BME280;51307;52.162;7.560;2022-12-07T07:35:24;101008.13;;;2.48;100.00
64841;BME280;51307;52.162;7.560;2022-12-07T07:37:50;101007.06;;;2.64;100.00
64841;BME280;51307;52.162;7.560;2022-12-07T07:40:15;100998.84;;;2.72;100.00
64841;BME280;51307;52.162;7.560;2022-12-07T07:42:41;100997.66;;;2.63;100.00
64841;BME280;51307;52.162;7.560;2022-12-07T07:45:06;100996.41;;;2.42;100.00
64841;BME280;51307;52.162;7.560;2022-12-07T07:47:32;100992.75;;;2.46;100.00
64841;BME280;51307;52.162;7.560;2022-12-07T07:49:58;100990.38;;;2.43;100.00
64841;BME280;51307;52.162;7.560;2022-12-07T07:52:23;100994.78;;;2.41;100.00
64841;BME280;51307;52.162;7.560;2022-12-07T07:54:49;100994.41;;;2.47;100.00
64841;BME280;51307;52.162;7.560;2022-12-07T07:57:17;100998.81;;;2.45;100.00
64841;BME280;51307;52.162;7.560;2022-12-07T07:59:42;101001.84;;;2.52;100.00
64841;BME280;51307;52.162;7.560;2022-12-07T08:02:16;100995.28;;;2.60;100.00
64841;BME280;51307;52.162;7.560;2022-12-07T08:04:42;100994.72;;;2.55;100.00
64841;BME280;51307;52.162;7.560;2022-12-07T08:07:08;101000.47;;;2.73;100.00
64841;BME280;51307;52.162;7.560;2022-12-07T08:09:34;100997.47;;;2.25;100.00
64841;BME280;51307;52.162;7.560;2022-12-07T08:11:59;101003.16;;;2.16;100.00
64841;BME280;51307;52.162;7.560;2022-12-07T08:14:26;101001.25;;;2.34;100.00
64841;BME280;51307;52.162;7.560;2022-12-07T08:16:52;101000.41;;;2.33;100.00
64841;BME280;51307;52.162;7.560;2022-12-07T08:19:18;101012.28;;;2.36;100.00
64841;BME280;51307;52.162;7.560;2022-12-07T08:21:44;101012.09;;;2.39;100.00
64841;BME280;51307;52.162;7.560;2022-12-07T08:24:09;101009.72;;;2.36;100.00
64841;BME280;51307;52.162;7.560;2022-12-07T08:26:35;101013.34;;;2.46;100.00
64841;BME280;51307;52.162;7.560;2022-12-07T08:29:01;101005.03;;;2.55;100.00
64841;BME280;51307;52.162;7.560;2022-12-07T08:31:26;101011.97;;;2.55;100.00
64841;BME280;51307;52.162;7.560;2022-12-07T08:33:53;101005.78;;;2.57;100.00
64841;BME280;51307;52.162;7.560;2022-12-07T08:36:19;101003.19;;;2.57;100.00
64841;BME280;51307;52.162;7.560;2022-12-07T08:38:45;101007.75;;;2.54;100.00
64841;BME280;51307;52.162;7.560;2022-12-07T08:41:10;101015.50;;;2.81;100.00
64841;BME280;51307;52.162;7.560;2022-12-07T08:43:36;101008.78;;;2.78;100.00
64841;BME280;51307;52.162;7.560;2022-12-07T08:46:18;101010.03;;;2.85;100.00
64841;BME280;51307;52.162;7.560;2022-12-07T08:48:55;101012.84;;;2.95;100.00
64841;BME280;51307;52.162;7.560;2022-12-07T08:51:23;101008.44;;;2.70;100.00
64841;BME280;51307;52.162;7.560;2022-12-07T08:53:51;101011.59;;;2.88;100.00
64841;BME280;51307;52.162;7.560;2022-12-07T08:56:17;101004.09;;;2.98;100.00
64841;BME280;51307;52.162;7.560;2022-12-07T08:58:44;101007.13;;;3.04;100.00
64841;BME280;51307;52.162;7.560;2022-12-07T09:01:10;101007.28;;;3.29;100.00
64841;BME280;51307;52.162;7.560;2022-12-07T09:03:35;101004.84;;;3.13;100.00
64841;BME280;51307;52.162;7.560;2022-12-07T09:06:01;101008.13;;;3.02;100.00
64841;BME280;51307;52.162;7.560;2022-12-07T09:08:39;101005.09;;;2.95;100.00
64841;BME280;51307;52.162;7.560;2022-12-07T09:11:05;101007.25;;;3.16;100.00
64841;BME280;51307;52.162;7.560;2022-12-07T09:13:31;101014.75;;;3.06;100.00
64841;BME280;51307;52.162;7.560;2022-12-07T09:15:56;101016.75;;;3.28;100.00
64841;BME280;51307;52.162;7.560;2022-12-07T09:18:22;101025.00;;;3.20;100.00
64841;BME280;51307;52.162;7.560;2022-12-07T09:20:47;101023.59;;;3.02;100.00
64841;BME280;51307;52.162;7.560;2022-12-07T09:23:13;101021.47;;;3.09;100.00
64841;BME280;51307;52.162;7.560;2022-12-07T09:25:38;101012.41;;;3.16;100.00
64841;BME280;51307;52.162;7.560;2022-12-07T09:28:04;101016.25;;;3.23;100.00
64841;BME280;51307;52.162;7.560;2022-12-07T09:30:29;101008.66;;;3.07;100.00
64841;BME280;51307;52.162;7.560;2022-12-07T09:32:56;101012.72;;;3.24;100.00
64841;BME280;51307;52.162;7.560;2022-12-07T09:35:23;101012.88;;;3.35;100.00
64841;BME280;51307;52.162;7.560;2022-12-07T09:37:49;101013.97;;;3.18;100.00
64841;BME280;51307;52.162;7.560;2022-12-07T09:40:16;101006.44;;;3.15;100.00
64841;BME280;51307;52.162;7.560;2022-12-07T09:42:46;101012.59;;;3.13;100.00
64841;BME280;51307;52.162;7.560;2022-12-07T09:45:27;101012.97;;;3.34;100.00
64841;BME280;51307;52.162;7.560;2022-12-07T09:47:55;101010.16;;;3.37;100.00
64841;BME280;51307;52.162;7.560;2022-12-07T09:50:26;101007.41;;;3.40;100.00
64841;BME280;51307;52.162;7.560;2022-12-07T09:53:07;101006.94;;;3.20;100.00
64841;BME280;51307;52.162;7.560;2022-12-07T09:55:41;101004.38;;;3.46;100.00
64841;BME280;51307;52.162;7.560;2022-12-07T09:58:23;100999.34;;;3.44;100.00
64841;BME280;51307;52.162;7.560;2022-12-07T10:00:58;101000.91;;;3.60;100.00
64841;BME280;51307;52.162;7.560;2022-12-07T10:03:26;101004.81;;;3.40;100.00
64841;BME280;51307;52.162;7.560;2022-12-07T10:05:53;100991.72;;;3.68;100.00
64841;BME280;51307;52.162;7.560;2022-12-07T10:08:19;101003.50;;;3.60;100.00
64841;BME280;51307;52.162;7.560;2022-12-07T10:10:48;100998.63;;;3.68;100.00
64841;BME280;51307;52.162;7.560;2022-12-07T10:13:20;100991.78;;;3.29;100.00
64841;BME280;51307;52.162;7.560;2022-12-07T10:18:32;100981.16;;;3.59;100.00
64841;BME280;51307;52.162;7.560;2022-12-07T10:21:17;100976.72;;;3.86;100.00
64841;BME280;51307;52.162;7.560;2022-12-07T10:26:40;100983.84;;;3.70;100.00
64841;BME280;51307;52.162;7.560;2022-12-07T10:31:41;100983.22;;;3.92;100.00
64841;BME280;51307;52.162;7.560;2022-12-07T10:36:47;100996.97;;;3.67;100.00
64841;BME280;51307;52.162;7.560;2022-12-07T10:39:19;100994.00;;;3.86;100.00
64841;BME280;51307;52.162;7.560;2022-12-07T10:41:56;100990.38;;;3.76;100.00
64841;BME280;51307;52.162;7.560;2022-12-07T10:44:25;100985.72;;;3.55;100.00
64841;BME280;51307;52.162;7.560;2022-12-07T10:47:19;100983.53;;;3.36;100.00
64841;BME280;51307;52.162;7.560;2022-12-07T10:49:59;100989.00;;;3.70;100.00
64841;BME280;51307;52.162;7.560;2022-12-07T10:57:43;100984.47;;;3.61;100.00
64841;BME280;51307;52.162;7.560;2022-12-07T11:05:40;100960.00;;;3.79;100.00
64841;BME280;51307;52.162;7.560;2022-12-07T11:08:15;100971.47;;;3.50;100.00
64841;BME280;51307;52.162;7.560;2022-12-07T11:19:28;100954.28;;;3.87;100.00
64841;BME280;51307;52.162;7.560;2022-12-07T11:22:09;100946.56;;;3.74;100.00
64841;BME280;51307;52.162;7.560;2022-12-07T11:33:00;100945.75;;;4.23;100.00
64841;BME280;51307;52.162;7.560;2022-12-07T11:35:57;100946.19;;;4.17;100.00
64841;BME280;51307;52.162;7.560;2022-12-07T11:41:05;100934.53;;;3.99;100.00
64841;BME280;51307;52.162;7.560;2022-12-07T11:43:58;100926.03;;;4.09;100.00
64841;BME280;51307;52.162;7.560;2022-12-07T11:46:45;100925.50;;;4.17;100.00
64841;BME280;51307;52.162;7.560;2022-12-07T11:49:44;100919.94;;;4.11;100.00
64841;BME280;51307;52.162;7.560;2022-12-07T11:52:42;100922.34;;;4.01;100.00
64841;BME280;51307;52.162;7.560;2022-12-07T11:55:21;100913.78;;;4.24;100.00
64841;BME280;51307;52.162;7.560;2022-12-07T11:57:58;100908.66;;;4.48;100.00
64841;BME280;51307;52.162;7.560;2022-12-07T12:00:27;100908.09;;;4.32;100.00
64841;BME280;51307;52.162;7.560;2022-12-07T12:03:12;100912.31;;;4.46;100.00
64841;BME280;51307;52.162;7.560;2022-12-07T12:05:41;100901.53;;;4.15;100.00
64841;BME280;51307;52.162;7.560;2022-12-07T12:08:19;100904.72;;;4.43;100.00
64841;BME280;51307;52.162;7.560;2022-12-07T12:11:01;100896.69;;;4.47;100.00
64841;BME280;51307;52.162;7.560;2022-12-07T12:19:24;100912.41;;;4.44;100.00
64841;BME280;51307;52.162;7.560;2022-12-07T12:21:55;100908.22;;;4.55;100.00
64841;BME280;51307;52.162;7.560;2022-12-07T12:24:26;100896.25;;;4.41;100.00
64841;BME280;51307;52.162;7.560;2022-12-07T12:27:06;100893.75;;;4.52;100.00
64841;BME280;51307;52.162;7.560;2022-12-07T12:29:41;100889.56;;;4.62;100.00
64841;BME280;51307;52.162;7.560;2022-12-07T12:32:15;100889.59;;;4.74;100.00
64841;BME280;51307;52.162;7.560;2022-12-07T12:42:45;100882.53;;;4.76;100.00
64841;BME280;51307;52.162;7.560;2022-12-07T12:48:04;100879.72;;;4.67;98.89
64841;BME280;51307;52.162;7.560;2022-12-07T12:54:04;100873.78;;;4.89;98.44
64841;BME280;51307;52.162;7.560;2022-12-07T12:56:41;100874.50;;;5.03;97.55
64841;BME280;51307;52.162;7.560;2022-12-07T12:59:32;100872.28;;;4.98;97.13
64841;BME280;51307;52.162;7.560;2022-12-07T13:02:50;100870.56;;;4.75;97.28
64841;BME280;51307;52.162;7.560;2022-12-07T13:10:25;100865.84;;;4.80;97.13
64841;BME280;51307;52.162;7.560;2022-12-07T13:26:19;100851.25;;;4.67;96.02
64841;BME280;51307;52.162;7.560;2022-12-07T13:29:04;100847.56;;;4.47;96.67
64841;BME280;51307;52.162;7.560;2022-12-07T13:36:52;100835.84;;;4.42;97.95
64841;BME280;51307;52.162;7.560;2022-12-07T13:39:21;100828.25;;;4.52;98.44
64841;BME280;51307;52.162;7.560;2022-12-07T13:41:52;100832.06;;;4.59;98.43
64841;BME280;51307;52.162;7.560;2022-12-07T13:44:19;100841.31;;;4.50;98.98
64841;BME280;51307;52.162;7.560;2022-12-07T13:47:16;100833.84;;;4.69;98.61
64841;BME280;51307;52.162;7.560;2022-12-07T13:49:53;100829.16;;;4.39;99.16
64841;BME280;51307;52.162;7.560;2022-12-07T13:52:27;100827.16;;;4.78;98.33
64841;BME280;51307;52.162;7.560;2022-12-07T13:55:05;100817.38;;;4.70;98.24
64841;BME280;51307;52.162;7.560;2022-12-07T13:57:38;100827.88;;;4.45;99.21
64841;BME280;51307;52.162;7.560;2022-12-07T14:00:13;100817.19;;;4.49;98.85
64841;BME280;51307;52.162;7.560;2022-12-07T14:02:56;100829.66;;;4.44;98.60
64841;BME280;51307;52.162;7.560;2022-12-07T14:05:31;100828.09;;;4.42;99.12
64841;BME280;51307;52.162;7.560;2022-12-07T14:08:03;100819.22;;;4.46;98.94
64841;BME280;51307;52.162;7.560;2022-12-07T14:10:34;100822.59;;;4.46;99.31
64841;BME280;51307;52.162;7.560;2022-12-07T14:13:04;100810.06;;;4.53;99.01
64841;BME280;51307;52.162;7.560;2022-12-07T14:15:50;100822.81;;;4.67;98.30
64841;BME280;51307;52.162;7.560;2022-12-07T14:18:38;100825.63;;;4.76;98.06
64841;BME280;51307;52.162;7.560;2022-12-07T14:21:05;100825.13;;;4.59;97.99
64841;BME280;51307;52.162;7.560;2022-12-07T14:23:31;100822.91;;;4.66;98.24
64841;BME280;51307;52.162;7.560;2022-12-07T14:26:20;100817.50;;;4.69;97.88
64841;BME280;51307;52.162;7.560;2022-12-07T14:28:47;100821.13;;;4.66;97.65
64841;BME280;51307;52.162;7.560;2022-12-07T14:31:18;100824.97;;;4.49;97.85
64841;BME280;51307;52.162;7.560;2022-12-07T14:33:45;100817.66;;;4.79;97.51
64841;BME280;51307;52.162;7.560;2022-12-07T14:36:14;100815.53;;;4.73;97.54
64841;BME280;51307;52.162;7.560;2022-12-07T14:38:40;100808.78;;;4.59;97.68
64841;BME280;51307;52.162;7.560;2022-12-07T14:41:14;100814.53;;;4.62;97.15
64841;BME280;51307;52.162;7.560;2022-12-07T14:43:59;100812.53;;;4.55;97.35
64841;BME280;51307;52.162;7.560;2022-12-07T14:46:25;100816.34;;;4.73;97.25
64841;BME280;51307;52.162;7.560;2022-12-07T14:48:50;100812.22;;;4.70;97.01
64841;BME280;51307;52.162;7.560;2022-12-07T14:51:16;100813.34;;;4.55;97.41
64841;BME280;51307;52.162;7.560;2022-12-07T14:53:49;100803.78;;;4.44;97.32
64841;BME280;51307;52.162;7.560;2022-12-07T14:56:15;100806.19;;;4.47;97.70
64841;BME280;51307;52.162;7.560;2022-12-07T14:58:41;100799.16;;;4.37;97.73
64841;BME280;51307;52.162;7.560;2022-12-07T15:01:06;100804.72;;;4.43;97.88